Arthur, ND (58006)

6:42 AM CDT on August 24, 2016 (GMT -0500)
PFS Hunter | | Change Station

Elev 974 ft 47.15 °N, 97.21 °W | Updated 9 seconds ago

Clear
Clear
56.7 °F
Feels Like 56.7 °F
N
4.3
Wind Variable Wind from WNW
Gusts 9.0 mph

Today
High -- | Low -- °F
--% Chance of Precip.
Yesterday
High -- | Low -- °F
Precip. -- in
Pressure 29.85 in
Visibility 10.0 miles
Clouds Clear
Dew Point 50 °F
Humidity 78%
Rainfall 0.02 in
Snow Depth Not available.
6:38 AM 8:22 PM
Waning Gibbous, 58% visible
METAR KFAR 241053Z AUTO 27005KT 10SM CLR 13/10 A2985 RMK AO2 SLP106 T01330100 TSNO
Pressure 29.85 in
Visibility 10.0 miles
Clouds Clear
Dew Point 50 °F
Humidity 78%
Rainfall 0.02 in
Snow Depth Not available.
6:38 AM 8:22 PM
Waning Gibbous, 58% visible
METAR KFAR 241053Z AUTO 27005KT 10SM CLR 13/10 A2985 RMK AO2 SLP106 T01330100 TSNO

10-Day Weather Forecast

Almanac

Astronomy

Aug. 24, 2016 Rise Set
Actual Time
Civil Twilight
Nautical Twilight
Astronomical Twilight
Moon
Length of Visible Light
Length of Day
Tomorrow will be .
, % of the Moon is Illuminated

Today's Extremes

State Highs State Lows

Community

WunderPhotos

Upload Photos

1,934,571 photos uploaded!

WunderBlog® & News

Nearby

Air Quality

  Air Quality AQ Index Pollutant
Not available.

Snow Depth

Station Depth Elevation

Earthquake Activity

City Distance Mag. Time & Date
Minimum magnitude displayed is 2.5.

Coastal Water Temperatures

Place Temperature

Stations

Nearby Weather Stations

Station Location Temp. Windchill Dew Point Humidity Wind Precip. Elev Updated Type
                   

Watches & Warnings

There are currently no watches in effect.